Time;durP1;ratioP1;P1;durP2;ratioP2;P2;SDS_P1;SDS_P2;PMS_P1;PMS_P2;Temp;Humidity;BMP_temperature;BMP_pressure;BME280_temperature;BME280_humidity;BME280_pressure;Samples;Min_cycle;Max_cycle;Signal;HPM_P1;HPM_P2
2024/04/23 00:01:25;;;;;;;8.47;4.37;;;;;;;5.98;58.83;100126.06;4484110;26;20225;-69
2024/04/23 00:03:26;;;;;;;7.30;3.90;;;;;;;5.92;59.27;100121.22;4484691;26;20249;-68
2024/04/23 00:05:26;;;;;;;7.17;3.73;;;;;;;5.99;59.02;100116.31;4482290;26;20018;-69
2024/04/23 00:07:26;;;;;;;7.67;4.47;;;;;;;5.93;59.20;100122.94;4481921;26;20217;-69
2024/04/23 00:09:28;;;;;;;6.93;4.17;;;;;;;5.91;59.34;100124.84;4480458;26;20443;-70
2024/04/23 00:11:30;;;;;;;7.20;3.97;;;;;;;5.86;59.39;100111.91;4477825;26;20010;-68
2024/04/23 00:13:30;;;;;;;7.32;4.43;;;;;;;5.82;59.32;100107.78;4476037;26;20031;-68
2024/04/23 00:15:30;;;;;;;7.07;3.90;;;;;;;5.71;59.54;100116.53;4477765;26;20007;-68
2024/04/23 00:17:31;;;;;;;7.23;3.77;;;;;;;5.65;59.93;100103.72;4478714;26;20701;-69
2024/04/23 00:19:32;;;;;;;6.87;3.87;;;;;;;5.59;60.08;100112.09;4477732;26;19999;-69
2024/04/23 00:21:33;;;;;;;7.95;4.18;;;;;;;5.60;59.96;100111.16;4476396;26;20007;-69
2024/04/23 00:23:35;;;;;;;7.17;3.90;;;;;;;5.51;60.38;100106.50;4477120;26;20011;-73
2024/04/23 00:25:36;;;;;;;7.57;4.20;;;;;;;5.55;60.10;100102.69;4478249;26;20712;-69
2024/04/23 00:27:37;;;;;;;7.32;3.67;;;;;;;5.57;60.10;100106.09;4476689;26;20011;-68
2024/04/23 00:29:37;;;;;;;8.30;3.97;;;;;;;5.58;60.13;100105.09;4478270;26;20072;-68
2024/04/23 00:31:37;;;;;;;6.53;3.23;;;;;;;5.58;60.09;100110.41;4478589;26;20442;-68
2024/04/23 00:33:38;;;;;;;6.50;3.27;;;;;;;5.63;59.83;100110.94;4477460;26;20002;-68
2024/04/23 00:35:38;;;;;;;5.70;3.00;;;;;;;5.61;59.86;100104.88;4475609;26;20249;-68
2024/04/23 00:37:39;;;;;;;5.27;3.20;;;;;;;5.58;59.89;100108.63;4477617;26;20273;-68
2024/04/23 00:39:39;;;;;;;7.00;3.90;;;;;;;5.53;60.03;100108.09;4477833;26;20452;-68
2024/04/23 00:41:40;;;;;;;5.97;3.50;;;;;;;5.44;60.18;100111.41;4477440;26;20016;-68
2024/04/23 00:43:40;;;;;;;9.15;4.50;;;;;;;5.45;60.17;100107.81;4477600;26;20331;-68
2024/04/23 00:45:45;;;;;;;5.85;3.58;;;;;;;5.50;59.92;100105.69;4478199;26;20010;-68
2024/04/23 00:47:46;;;;;;;6.70;3.80;;;;;;;5.51;59.46;100109.16;4477547;26;20007;-68
2024/04/23 00:49:48;;;;;;;7.20;4.07;;;;;;;5.44;59.58;100099.00;4483678;26;20010;-68
2024/04/23 00:51:50;;;;;;;6.60;3.85;;;;;;;5.45;59.27;100102.50;4488258;26;20010;-68
2024/04/23 00:53:51;;;;;;;5.43;3.42;;;;;;;5.44;59.21;100095.50;4475936;26;20435;-68
2024/04/23 00:55:51;;;;;;;6.85;3.67;;;;;;;5.43;58.99;100094.66;4477571;26;20000;-69
2024/04/23 00:57:52;;;;;;;5.43;2.97;;;;;;;5.41;59.11;100096.56;4478396;26;20080;-68
2024/04/23 00:59:52;;;;;;;5.70;3.40;;;;;;;5.47;58.91;100101.44;4477981;26;20096;-68
2024/04/23 01:01:55;;;;;;;6.05;3.55;;;;;;;5.41;58.77;100091.28;4477838;26;20000;-68
2024/04/23 01:03:55;;;;;;;6.80;3.70;;;;;;;5.37;59.30;100083.66;4477342;26;20003;-68
2024/04/23 01:05:56;;;;;;;7.65;4.45;;;;;;;5.31;59.49;100092.88;4478452;26;20040;-68
2024/04/23 01:07:56;;;;;;;6.90;4.20;;;;;;;5.06;59.87;100083.16;4477953;26;20026;-70
2024/04/23 01:09:57;;;;;;;8.50;4.87;;;;;;;4.94;60.01;100076.94;4477670;26;20008;-68
2024/04/23 01:11:58;;;;;;;8.70;4.78;;;;;;;4.77;59.90;100081.63;4477504;26;20015;-68
2024/04/23 01:13:58;;;;;;;8.35;4.28;;;;;;;4.92;59.50;100086.78;4476262;26;20003;-68
2024/04/23 01:15:59;;;;;;;10.80;4.67;;;;;;;4.64;59.91;100086.06;4477409;26;20000;-67
2024/04/23 01:18:02;;;;;;;9.07;4.55;;;;;;;4.62;59.88;100088.00;4477455;26;20225;-68
2024/04/23 01:20:08;;;;;;;9.85;4.93;;;;;;;4.48;60.10;100083.63;4477469;26;20007;-68
2024/04/23 01:22:21;;;;;;;8.95;4.63;;;;;;;4.49;59.96;100083.53;4477529;26;20065;-68
2024/04/23 01:24:30;;;;;;;7.32;4.72;;;;;;;4.63;59.59;100085.22;4478975;26;19999;-68
2024/04/23 01:26:31;;;;;;;7.50;4.68;;;;;;;4.50;59.75;100085.22;4478661;26;20011;-69
2024/04/23 01:28:32;;;;;;;10.15;4.38;;;;;;;4.52;59.46;100083.31;4476858;26;20000;-68
2024/04/23 01:30:33;;;;;;;;;;;;;;;4.38;59.72;100086.06;4478436;26;20004;-69
2024/04/23 01:32:39;;;;;;;7.47;3.93;;;;;;;4.53;59.50;100086.81;4476590;26;19971;-68
2024/04/23 01:34:40;;;;;;;9.63;4.80;;;;;;;4.52;58.83;100083.31;4480827;26;20060;-68
2024/04/23 01:36:40;;;;;;;;;;;;;;;4.33;59.39;100088.19;4480018;26;19999;-69
2024/04/23 01:38:43;;;;;;;9.50;4.87;;;;;;;4.37;59.16;100073.75;4479300;26;19939;-68
2024/04/23 01:40:44;;;;;;;7.20;4.50;;;;;;;4.48;58.80;100086.28;4478571;26;19996;-68
2024/04/23 01:42:46;;;;;;;7.95;4.88;;;;;;;4.51;58.70;100076.34;4464312;26;20442;-68
2024/04/23 01:44:47;;;;;;;8.35;4.70;;;;;;;4.44;58.68;100080.31;4476610;26;20069;-69
2024/04/23 01:46:48;;;;;;;11.82;5.30;;;;;;;4.50;58.53;100081.72;4477310;26;20468;-68
2024/04/23 01:48:49;;;;;;;10.27;5.80;;;;;;;4.24;58.81;100083.50;4464466;26;20011;-68
2024/04/23 01:50:49;;;;;;;12.07;6.03;;;;;;;4.44;58.60;100087.44;4460532;26;20000;-68
2024/04/23 01:52:50;;;;;;;9.13;5.10;;;;;;;4.49;58.41;100083.53;4472216;26;20385;-68
2024/04/23 01:54:51;;;;;;;9.32;5.05;;;;;;;4.64;57.99;100080.75;4452989;26;20003;-68
2024/04/23 01:56:51;;;;;;;9.88;4.70;;;;;;;4.68;58.05;100083.09;4450931;26;19996;-68
2024/04/23 01:58:52;;;;;;;7.47;4.60;;;;;;;4.75;58.18;100082.69;4477021;26;20010;-68
2024/04/23 02:00:56;;;;;;;8.43;4.40;;;;;;;4.79;58.33;100079.72;4478478;26;20056;-68
2024/04/23 02:03:00;;;;;;;8.27;4.15;;;;;;;4.66;58.85;100089.47;4477680;26;20014;-68
2024/04/23 02:05:00;;;;;;;8.43;5.05;;;;;;;4.81;58.53;100088.41;4480262;26;20000;-68
2024/04/23 02:07:01;;;;;;;10.48;5.22;;;;;;;4.58;59.17;100084.69;4480044;26;20065;-68
2024/04/23 02:09:01;;;;;;;10.27;5.32;;;;;;;4.75;58.80;100080.03;4477827;26;20086;-68
2024/04/23 02:11:02;;;;;;;8.63;4.72;;;;;;;4.69;59.02;100084.78;4479244;26;20007;-68
2024/04/23 02:13:07;;;;;;;7.43;4.32;;;;;;;4.70;59.15;100085.66;4479142;26;20084;-68
2024/04/23 02:15:08;;;;;;;8.95;5.03;;;;;;;4.50;59.55;100082.56;4478544;26;20017;-68
2024/04/23 02:17:08;;;;;;;9.65;5.00;;;;;;;4.61;59.51;100081.00;4479875;26;20436;-68
2024/04/23 02:19:09;;;;;;;7.80;4.40;;;;;;;4.71;59.15;100074.13;4479896;26;20004;-68
2024/04/23 02:21:10;;;;;;;7.93;4.63;;;;;;;4.57;59.11;100077.72;4484218;26;20128;-68
2024/04/23 02:23:10;;;;;;;8.98;4.97;;;;;;;4.60;59.05;100080.13;4491317;26;20273;-69
2024/04/23 02:25:11;;;;;;;6.67;3.93;;;;;;;4.70;58.90;100075.06;4493420;26;20003;-71
2024/04/23 02:27:11;;;;;;;10.10;5.03;;;;;;;4.75;58.69;100072.94;4494392;26;19996;-68
2024/04/23 02:29:12;;;;;;;7.87;4.47;;;;;;;4.73;58.77;100076.66;4493664;26;20080;-68
2024/04/23 02:31:12;;;;;;;7.15;4.68;;;;;;;4.71;58.82;100076.75;4483976;26;20007;-68
2024/04/23 02:33:13;;;;;;;9.07;4.73;;;;;;;4.63;59.03;100084.41;4479427;26;20085;-68
2024/04/23 02:35:13;;;;;;;7.30;5.00;;;;;;;4.52;59.30;100078.03;4479293;26;20003;-68
2024/04/23 02:37:14;;;;;;;8.63;5.10;;;;;;;4.52;59.52;100074.53;4480225;26;20221;-69
2024/04/23 02:39:14;;;;;;;7.43;4.55;;;;;;;4.49;59.47;100072.94;4479734;26;19996;-68
2024/04/23 02:41:14;;;;;;;10.15;5.10;;;;;;;4.56;59.30;100078.66;4480526;26;20011;-68
2024/04/23 02:43:15;;;;;;;7.50;4.63;;;;;;;4.58;59.11;100086.50;4478839;26;19996;-68
2024/04/23 02:45:15;;;;;;;10.47;5.13;;;;;;;4.62;59.01;100088.00;4480060;26;20221;-68
2024/04/23 02:47:17;;;;;;;11.88;4.95;;;;;;;4.63;58.99;100077.28;4479804;26;19999;-68
2024/04/23 02:49:17;;;;;;;9.02;4.82;;;;;;;4.68;59.00;100080.44;4479914;26;20011;-68
2024/04/23 02:51:17;;;;;;;6.60;4.43;;;;;;;4.71;58.88;100071.47;4479488;26;20065;-68
2024/04/23 02:53:18;;;;;;;7.65;4.57;;;;;;;4.63;59.24;100073.81;4479108;26;20000;-68
2024/04/23 02:55:18;;;;;;;9.10;4.80;;;;;;;4.67;58.85;100067.31;4479892;26;20332;-68
2024/04/23 02:57:19;;;;;;;8.80;4.87;;;;;;;4.75;58.73;100078.22;4479873;26;20461;-68
2024/04/23 02:59:21;;;;;;;9.23;4.57;;;;;;;4.73;58.54;100074.84;4479422;26;20765;-68
2024/04/23 03:01:21;;;;;;;7.45;4.50;;;;;;;4.74;58.67;100073.03;4478031;26;20015;-69
2024/04/23 03:03:22;;;;;;;9.80;4.40;;;;;;;4.64;58.77;100064.88;4479278;26;20455;-68
2024/04/23 03:05:22;;;;;;;8.20;4.53;;;;;;;4.56;58.87;100073.38;4478052;26;20010;-68
2024/04/23 03:07:23;;;;;;;7.30;4.15;;;;;;;4.58;58.85;100075.91;4479626;26;20391;-68
2024/04/23 03:09:23;;;;;;;6.40;4.00;;;;;;;4.59;58.89;100074.94;4479374;26;20011;-68
2024/04/23 03:11:24;;;;;;;6.55;4.10;;;;;;;4.56;58.82;100072.50;4478989;26;20781;-68
2024/04/23 03:13:24;;;;;;;6.63;4.30;;;;;;;4.61;58.75;100065.94;4478493;26;19995;-67
2024/04/23 03:15:25;;;;;;;9.13;4.17;;;;;;;4.63;58.60;100064.03;4478972;26;20040;-68
2024/04/23 03:17:25;;;;;;;7.13;4.03;;;;;;;4.58;58.55;100068.78;4479324;26;20238;-68
2024/04/23 03:19:26;;;;;;;7.55;4.53;;;;;;;4.48;58.61;100067.75;4479027;26;20014;-68
2024/04/23 03:21:26;;;;;;;8.00;4.87;;;;;;;4.33;58.96;100070.47;4479041;26;20008;-69
2024/04/23 03:23:26;;;;;;;10.05;4.97;;;;;;;4.26;59.40;100068.34;4478599;26;20102;-68
2024/04/23 03:25:27;;;;;;;8.90;4.97;;;;;;;4.36;58.84;100078.22;4479484;26;20018;-68
2024/04/23 03:27:27;;;;;;;9.85;5.25;;;;;;;4.38;58.62;100067.53;4479331;26;20314;-68
2024/04/23 03:29:28;;;;;;;14.90;6.77;;;;;;;4.38;58.46;100070.16;4479736;26;20043;-68
2024/04/23 03:31:29;;;;;;;9.23;5.32;;;;;;;4.41;58.18;100067.31;4480772;26;20018;-68
2024/04/23 03:33:29;;;;;;;8.90;5.60;;;;;;;4.15;58.87;100067.28;4482384;26;20000;-68
2024/04/23 03:35:30;;;;;;;9.67;5.03;;;;;;;4.25;58.76;100074.63;4481926;26;20214;-68
2024/04/23 03:37:30;;;;;;;10.43;5.73;;;;;;;4.26;58.61;100071.00;4479315;26;20397;-68
2024/04/23 03:39:30;;;;;;;7.43;4.90;;;;;;;4.23;58.69;100064.13;4481378;26;20788;-68
2024/04/23 03:41:31;;;;;;;9.73;5.43;;;;;;;4.26;58.62;100065.69;4479075;26;20279;-68
2024/04/23 03:43:31;;;;;;;10.00;6.60;;;;;;;4.06;59.10;100065.25;4477303;26;20294;-72
2024/04/23 03:45:32;;;;;;;9.43;6.03;;;;;;;4.12;58.87;100063.97;4479543;26;20132;-69
2024/04/23 03:47:32;;;;;;;11.50;5.47;;;;;;;4.13;58.68;100065.69;4479630;26;20701;-68
2024/04/23 03:49:33;;;;;;;7.40;4.82;;;;;;;4.14;58.60;100062.94;4479103;26;20794;-68
2024/04/23 03:51:33;;;;;;;9.07;5.30;;;;;;;4.17;58.65;100056.59;4478985;26;20003;-68
2024/04/23 03:53:33;;;;;;;7.60;4.40;;;;;;;4.19;58.59;100057.34;4480754;26;20551;-69
2024/04/23 03:55:34;;;;;;;8.80;5.07;;;;;;;4.14;58.55;100056.78;4489503;26;20023;-68
2024/04/23 03:57:34;;;;;;;11.73;5.90;;;;;;;4.21;58.36;100063.34;4484264;26;20018;-68
2024/04/23 03:59:35;;;;;;;7.27;4.90;;;;;;;4.15;58.38;100056.72;4480710;26;19999;-68
2024/04/23 04:01:35;;;;;;;9.85;5.20;;;;;;;4.24;58.34;100059.69;4478078;26;20259;-68
2024/04/23 04:06:04;;;;;;;8.35;5.05;;;;;;;4.10;58.37;100058.81;4479620;26;20591;-68
2024/04/23 04:08:05;;;;;;;9.90;4.68;;;;;;;4.13;58.44;100048.03;4480792;26;20014;-68
2024/04/23 04:10:07;;;;;;;8.20;4.95;;;;;;;4.14;58.37;100047.06;4489514;26;19995;-69
2024/04/23 04:12:08;;;;;;;9.18;5.47;;;;;;;4.15;58.17;100053.19;4496259;26;20025;-68
2024/04/23 04:14:09;;;;;;;10.05;5.18;;;;;;;4.07;58.44;100048.41;4496391;26;19995;-69
2024/04/23 04:16:16;;;;;;;8.82;5.20;;;;;;;4.12;58.49;100046.31;4495428;26;20010;-67
2024/04/23 04:18:18;;;;;;;11.23;5.00;;;;;;;4.03;58.57;100047.78;4497822;26;20545;-71
2024/04/23 04:20:18;;;;;;;9.02;5.55;;;;;;;4.04;58.53;100046.81;4496749;26;20003;-68
2024/04/23 04:22:19;;;;;;;8.32;5.32;;;;;;;4.06;58.56;100049.41;4493402;26;20073;-68
2024/04/23 04:24:19;;;;;;;11.35;5.40;;;;;;;4.02;58.60;100040.78;4480866;26;20015;-68
2024/04/23 04:26:20;;;;;;;10.73;5.40;;;;;;;4.08;58.38;100041.34;4489598;26;20003;-68
2024/04/23 04:28:20;;;;;;;9.60;4.97;;;;;;;4.10;58.41;100037.63;4493842;26;20441;-67
2024/04/23 04:30:21;;;;;;;8.43;5.50;;;;;;;4.06;58.49;100047.56;4494079;26;20010;-70
2024/04/23 04:32:21;;;;;;;10.60;5.28;;;;;;;3.89;58.68;100047.88;4479154;26;20054;-68
2024/04/23 04:34:22;;;;;;;8.98;4.97;;;;;;;3.98;58.50;100038.44;4478748;26;19999;-67
2024/04/23 04:36:22;;;;;;;9.47;6.20;;;;;;;3.92;58.79;100046.81;4478309;26;20081;-68
2024/04/23 04:38:23;;;;;;;11.80;7.13;;;;;;;3.93;58.67;100051.97;4477887;26;20324;-68
2024/04/23 04:40:23;;;;;;;9.50;5.83;;;;;;;3.96;58.42;100046.50;4478465;26;20014;-69
2024/04/23 04:42:24;;;;;;;9.90;5.40;;;;;;;4.06;58.35;100042.28;4477353;26;20463;-68
2024/04/23 04:44:24;;;;;;;15.10;6.15;;;;;;;4.06;58.27;100041.47;4478928;26;20651;-68
2024/04/23 04:46:25;;;;;;;9.38;5.65;;;;;;;4.13;58.05;100041.88;4476661;26;20010;-69
2024/04/23 04:48:25;;;;;;;8.10;5.18;;;;;;;4.16;58.02;100050.44;4478604;26;20413;-69
2024/04/23 04:50:26;;;;;;;8.63;5.40;;;;;;;4.12;58.09;100046.31;4478779;26;19999;-67
2024/04/23 04:52:26;;;;;;;7.68;5.45;;;;;;;4.21;57.80;100051.00;4477420;26;19999;-68
2024/04/23 04:54:27;;;;;;;12.80;6.90;;;;;;;3.99;58.00;100046.31;4478810;26;20007;-68
2024/04/23 04:56:27;;;;;;;11.35;6.47;;;;;;;4.25;57.77;100048.97;4478343;26;20015;-67
2024/04/23 04:58:28;;;;;;;12.50;7.28;;;;;;;4.03;58.21;100055.72;4477921;26;19999;-68
2024/04/23 05:00:28;;;;;;;16.63;7.57;;;;;;;3.98;58.28;100052.53;4478670;26;20007;-68
2024/04/23 05:02:29;;;;;;;15.10;7.60;;;;;;;3.77;58.52;100056.59;4478545;26;20008;-68
2024/04/23 05:04:29;;;;;;;11.60;6.40;;;;;;;3.97;58.12;100071.16;4478827;26;20014;-68
2024/04/23 05:06:29;;;;;;;10.83;6.97;;;;;;;4.01;58.00;100065.56;4478680;26;20274;-67
2024/04/23 05:08:30;;;;;;;10.30;5.70;;;;;;;4.13;57.65;100063.03;4479408;26;20003;-68
2024/04/23 05:10:30;;;;;;;8.43;5.27;;;;;;;4.21;57.58;100063.34;4478790;26;20371;-67
2024/04/23 05:12:34;;;;;;;8.00;4.57;;;;;;;4.24;57.05;100062.34;4477707;26;20003;-68
2024/04/23 05:14:34;;;;;;;8.40;5.70;;;;;;;4.29;57.11;100058.44;4478819;26;20276;-67
2024/04/23 05:16:35;;;;;;;8.48;5.35;;;;;;;4.21;57.20;100050.13;4478181;26;20076;-67
2024/04/23 05:18:35;;;;;;;7.82;4.43;;;;;;;4.33;56.90;100056.41;4477918;26;19995;-68
2024/04/23 05:20:36;;;;;;;10.40;5.47;;;;;;;4.33;57.03;100059.06;4479242;26;20443;-68
2024/04/23 05:22:36;;;;;;;8.15;4.95;;;;;;;4.17;57.35;100051.31;4477697;26;20226;-67
2024/04/23 05:24:37;;;;;;;7.97;4.50;;;;;;;4.29;56.97;100060.22;4479429;26;20035;-67
2024/04/23 05:26:38;;;;;;;9.77;5.73;;;;;;;4.20;57.17;100059.88;4478748;26;20221;-67
2024/04/23 05:28:38;;;;;;;16.77;5.40;;;;;;;4.29;57.25;100065.50;4494088;26;19995;-74
2024/04/23 05:32:59;;;;;;;13.77;5.65;;;;;;;4.25;57.25;100064.88;4477713;26;20080;-68
2024/04/23 05:34:59;;;;;;;12.52;5.28;;;;;;;4.39;56.84;100065.75;4478023;26;20003;-68
2024/04/23 05:37:00;;;;;;;13.43;5.68;;;;;;;4.37;56.85;100068.47;4476638;26;20008;-67
2024/04/23 05:39:00;;;;;;;9.85;4.93;;;;;;;4.30;57.15;100075.13;4478162;26;20015;-68
2024/04/23 05:41:01;;;;;;;9.77;5.30;;;;;;;4.41;57.08;100075.25;4478376;26;20011;-68
2024/04/23 05:43:02;;;;;;;9.07;5.47;;;;;;;4.50;56.84;100066.69;4477732;26;20000;-67
2024/04/23 05:45:02;;;;;;;11.88;6.53;;;;;;;4.30;56.87;100083.91;4476550;26;20443;-67
2024/04/23 05:47:03;;;;;;;13.48;5.85;;;;;;;4.41;56.84;100080.56;4478423;26;20000;-68
2024/04/23 05:49:41;;;;;;;12.07;5.23;;;;;;;4.31;56.31;100079.47;4477732;26;20007;-68
2024/04/23 05:52:19;;;;;;;10.93;5.40;;;;;;;4.29;55.74;100070.78;4477811;26;20000;-68
2024/04/23 05:54:57;;;;;;;11.30;5.78;;;;;;;4.30;56.09;100075.97;4476232;26;20000;-68
2024/04/23 05:56:57;;;;;;;12.07;5.55;;;;;;;4.18;56.19;100076.81;4478323;26;20000;-68
2024/04/23 05:58:58;;;;;;;9.68;6.20;;;;;;;4.34;55.88;100071.34;4477904;26;20004;-68
2024/04/23 06:00:58;;;;;;;13.87;5.47;;;;;;;4.24;55.97;100078.22;4478141;26;20076;-68
2024/04/23 06:02:59;;;;;;;9.45;5.60;;;;;;;3.93;56.19;100081.06;4477183;26;20004;-68
2024/04/23 06:04:59;;;;;;;9.77;5.63;;;;;;;3.78;56.53;100076.81;4477681;26;19999;-68
2024/04/23 06:07:00;;;;;;;9.80;5.33;;;;;;;3.75;56.45;100083.16;4478103;26;20085;-67
2024/04/23 06:09:00;;;;;;;7.07;4.45;;;;;;;4.02;56.22;100083.13;4477752;26;21006;-68
2024/04/23 06:11:01;;;;;;;9.98;5.78;;;;;;;4.04;56.10;100083.88;4477213;26;20460;-68
2024/04/23 06:13:01;;;;;;;7.67;4.50;;;;;;;4.10;55.69;100072.03;4474951;26;20008;-68
2024/04/23 06:15:02;;;;;;;11.13;5.65;;;;;;;3.98;55.85;100081.63;4476229;26;20003;-67
2024/04/23 06:17:23;;;;;;;12.13;5.60;;;;;;;4.11;55.69;100080.84;4477836;26;20076;-67
2024/04/23 06:19:25;;;;;;;9.85;5.00;;;;;;;4.05;55.78;100096.16;4476507;26;20367;-68
2024/04/23 06:21:25;;;;;;;8.95;4.80;;;;;;;4.21;55.50;100076.59;4476841;26;20475;-68
2024/04/23 06:23:27;;;;;;;7.88;4.90;;;;;;;4.31;55.28;100082.13;4476698;26;20004;-68
2024/04/23 06:25:27;;;;;;;8.60;4.80;;;;;;;4.43;54.97;100078.66;4475584;26;20003;-70
2024/04/23 06:27:29;;;;;;;6.37;4.10;;;;;;;4.71;54.59;100078.53;4478385;26;20006;-68
2024/04/23 06:29:30;;;;;;;9.88;4.68;;;;;;;4.60;54.81;100080.13;4475494;26;20260;-68
2024/04/23 06:31:32;;;;;;;7.90;4.70;;;;;;;4.75;54.40;100072.94;4476711;26;20324;-68
2024/04/23 06:33:32;;;;;;;8.50;4.88;;;;;;;4.93;53.95;100070.81;4476324;26;20075;-68
2024/04/23 06:35:33;;;;;;;9.27;4.80;;;;;;;4.82;54.22;100063.59;4476749;26;20455;-68
2024/04/23 06:37:33;;;;;;;7.95;4.43;;;;;;;4.90;53.96;100067.53;4476901;26;19996;-69
2024/04/23 06:39:34;;;;;;;8.83;4.83;;;;;;;4.81;53.53;100063.72;4476748;26;20000;-68
2024/04/23 06:41:34;;;;;;;7.03;4.47;;;;;;;4.76;53.51;100069.34;4476793;26;20000;-68
2024/04/23 06:43:35;;;;;;;8.93;4.88;;;;;;;4.97;53.21;100066.13;4476221;26;20010;-68
2024/04/23 06:45:35;;;;;;;9.85;4.32;;;;;;;4.96;53.07;100064.44;4476938;26;20016;-69
2024/04/23 06:47:36;;;;;;;9.52;5.10;;;;;;;4.96;53.03;100056.50;4483775;26;20011;-69
2024/04/23 06:49:37;;;;;;;10.20;4.40;;;;;;;4.98;52.97;100063.38;4482011;26;20000;-68
2024/04/23 06:51:37;;;;;;;7.18;4.68;;;;;;;4.99;52.86;100057.13;4483082;26;20113;-68
2024/04/23 06:53:38;;;;;;;7.90;3.75;;;;;;;5.10;52.38;100059.00;4478540;26;20007;-69
2024/04/23 06:55:38;;;;;;;5.80;3.72;;;;;;;5.03;52.39;100065.69;4481419;26;20023;-69
2024/04/23 06:57:40;;;;;;;6.68;3.70;;;;;;;5.19;51.90;100061.97;4485352;26;20028;-69
2024/04/23 06:59:44;;;;;;;6.72;4.00;;;;;;;5.25;51.79;100049.09;4491147;26;20006;-69
2024/04/23 07:01:45;;;;;;;7.78;4.13;;;;;;;5.26;51.83;100056.09;4484343;26;19999;-68
2024/04/23 07:03:45;;;;;;;8.13;4.45;;;;;;;5.44;51.64;100059.25;4483380;26;20010;-69
2024/04/23 07:05:50;;;;;;;7.87;4.00;;;;;;;5.33;51.21;100051.22;4482222;26;20032;-68
2024/04/23 07:07:52;;;;;;;8.98;4.75;;;;;;;5.44;51.39;100059.25;4483644;26;20465;-69
2024/04/23 07:09:53;;;;;;;6.85;4.28;;;;;;;5.43;51.30;100046.09;4479916;26;19999;-68
2024/04/23 07:11:53;;;;;;;6.53;4.13;;;;;;;5.50;51.05;100047.34;4480150;26;19999;-68
2024/04/23 07:13:53;;;;;;;8.60;4.50;;;;;;;5.57;50.90;100053.88;4480536;26;20006;-70
2024/04/23 07:15:54;;;;;;;7.33;4.07;;;;;;;5.85;50.31;100041.22;4482263;26;20261;-68
2024/04/23 07:17:54;;;;;;;8.45;4.22;;;;;;;5.84;50.30;100038.69;4449774;26;20004;-68
2024/04/23 07:19:55;;;;;;;6.87;4.30;;;;;;;5.99;49.97;100036.72;4478665;26;20037;-68
2024/04/23 07:21:55;;;;;;;7.70;4.17;;;;;;;6.18;49.48;100037.03;4478452;26;20000;-69
2024/04/23 07:23:56;;;;;;;6.95;4.22;;;;;;;6.32;49.36;100033.34;4447424;26;19996;-69
2024/04/23 07:25:56;;;;;;;6.55;4.20;;;;;;;6.61;48.75;100032.91;4479209;26;20004;-69
2024/04/23 07:27:57;;;;;;;6.72;4.25;;;;;;;6.37;48.52;100019.69;4479443;26;20442;-68
2024/04/23 07:29:58;;;;;;;6.90;3.97;;;;;;;6.58;48.43;100022.50;4479196;26;19999;-69
2024/04/23 07:31:58;;;;;;;7.05;3.75;;;;;;;6.76;48.35;100020.19;4478923;26;20003;-69
2024/04/23 07:33:58;;;;;;;6.63;3.77;;;;;;;7.27;47.60;100029.47;4478616;26;20000;-69
2024/04/23 07:35:59;;;;;;;6.75;4.00;;;;;;;7.20;47.48;100032.75;4479673;26;20133;-69
2024/04/23 07:37:59;;;;;;;8.40;4.57;;;;;;;7.16;47.05;100022.34;4479227;26;20009;-68
2024/04/23 07:40:00;;;;;;;5.80;3.70;;;;;;;7.56;46.61;100023.56;4479649;26;20137;-69
2024/04/23 07:42:00;;;;;;;6.97;3.38;;;;;;;7.75;46.46;100012.25;4479591;26;20011;-68
2024/04/23 07:44:01;;;;;;;7.57;3.65;;;;;;;7.68;46.18;100012.88;4480115;26;20003;-68
2024/04/23 07:46:01;;;;;;;6.30;3.67;;;;;;;7.73;46.08;100006.22;4473374;26;20013;-68
2024/04/23 07:48:02;;;;;;;8.00;4.43;;;;;;;7.85;45.45;100007.00;4473348;26;20086;-68
2024/04/23 07:50:03;;;;;;;;;;;;;;;7.85;44.75;100004.34;4476698;26;20008;-68
2024/04/23 07:52:04;;;;;;;9.10;4.10;;;;;;;8.16;44.82;100009.75;4476883;26;20006;-68
2024/04/23 07:54:04;;;;;;;6.45;3.90;;;;;;;8.40;44.51;100011.31;4477726;26;20217;-68
2024/04/23 07:56:07;;;;;;;7.80;3.58;;;;;;;8.81;44.02;100003.41;4478701;26;20003;-68
2024/04/23 07:58:07;;;;;;;5.40;3.25;;;;;;;9.15;43.73;99998.59;4478106;26;20004;-68
2024/04/23 08:00:08;;;;;;;6.93;3.30;;;;;;;8.76;43.97;100002.94;4481758;26;20461;-68
2024/04/23 08:02:09;;;;;;;;;;;;;;;8.86;43.47;100007.34;4484379;26;20480;-68
2024/04/23 08:04:09;;;;;;;8.63;3.57;;;;;;;9.16;43.50;100002.09;4479520;26;19931;-67
2024/04/23 08:06:10;;;;;;;9.82;3.83;;;;;;;9.31;43.16;100000.72;4455765;26;19992;-67
2024/04/23 08:08:10;;;;;;;5.43;3.20;;;;;;;9.76;42.59;99994.03;4459699;26;20909;-68
2024/04/23 08:10:16;;;;;;;5.32;3.17;;;;;;;9.96;41.78;99989.53;4490966;26;20008;-67
2024/04/23 08:12:17;;;;;;;6.38;3.10;;;;;;;9.94;41.81;99991.50;4480209;26;20308;-68
2024/04/23 08:14:17;;;;;;;5.38;3.00;;;;;;;9.98;41.76;99992.06;4479171;26;20068;-68
2024/04/23 08:16:18;;;;;;;5.93;2.97;;;;;;;10.41;40.77;99988.03;4478492;26;20010;-68
2024/04/23 08:18:18;;;;;;;4.93;2.83;;;;;;;10.34;40.95;99989.59;4479002;26;20006;-68
2024/04/23 08:20:18;;;;;;;6.15;3.20;;;;;;;10.74;40.57;99980.47;4478359;26;20479;-68
2024/04/23 08:22:19;;;;;;;6.82;3.17;;;;;;;10.64;40.46;99978.81;4478710;26;20348;-69
2024/04/23 08:24:19;;;;;;;5.15;3.05;;;;;;;10.92;40.03;99977.03;4483149;26;20007;-67
2024/04/23 08:26:20;;;;;;;6.40;3.35;;;;;;;10.93;39.59;99968.00;4482003;26;20553;-68
2024/04/23 08:28:20;;;;;;;5.60;3.20;;;;;;;10.69;40.07;99972.03;4485445;26;20005;-68
2024/04/23 08:30:21;;;;;;;5.72;3.20;;;;;;;10.70;40.02;99970.22;4488612;26;20014;-68
2024/04/23 08:32:21;;;;;;;8.35;3.70;;;;;;;10.44;39.95;99969.06;4486926;26;20068;-68
2024/04/23 08:34:23;;;;;;;5.72;3.20;;;;;;;10.76;39.81;99972.31;4484710;26;20000;-68
2024/04/23 08:36:23;;;;;;;6.18;2.97;;;;;;;11.20;39.37;99961.78;4454292;26;20011;-67
2024/04/23 08:38:24;;;;;;;6.53;3.30;;;;;;;11.73;38.91;99959.28;4480667;26;19991;-67
2024/04/23 08:40:26;;;;;;;6.30;3.03;;;;;;;11.85;38.18;99954.50;4479869;26;20411;-68
2024/04/23 08:42:28;;;;;;;7.72;3.80;;;;;;;12.38;37.75;99951.88;4479261;26;20010;-67
2024/04/23 08:44:36;;;;;;;6.00;3.10;;;;;;;12.60;36.84;99955.88;4476580;26;20002;-68
2024/04/23 08:46:37;;;;;;;8.63;3.70;;;;;;;12.73;36.97;99958.09;4477496;26;19995;-68
2024/04/23 08:48:40;;;;;;;5.63;3.50;;;;;;;12.33;37.22;99947.84;4475845;26;20032;-68
2024/04/23 08:50:42;;;;;;;5.80;3.17;;;;;;;12.77;36.41;99951.38;4476504;26;20956;-69
2024/04/23 08:52:44;;;;;;;5.95;3.00;;;;;;;12.74;36.39;99938.31;4477239;26;19999;-68
2024/04/23 08:54:44;;;;;;;6.63;3.05;;;;;;;13.20;35.83;99944.16;4477594;26;20433;-68
2024/04/23 08:56:45;;;;;;;8.77;2.90;;;;;;;13.43;35.41;99934.66;4477005;26;20007;-68
2024/04/23 08:58:46;;;;;;;5.85;3.15;;;;;;;13.71;35.07;99930.66;4477168;26;20010;-69
2024/04/23 09:00:49;;;;;;;5.82;3.28;;;;;;;12.43;35.14;99936.16;4477006;26;20452;-69
2024/04/23 09:02:51;;;;;;;5.47;3.28;;;;;;;12.46;35.66;99930.50;4476820;26;20008;-68
2024/04/23 09:04:58;;;;;;;6.05;3.15;;;;;;;12.16;35.52;99940.69;4477403;26;20000;-69
2024/04/23 09:06:59;;;;;;;5.00;2.92;;;;;;;12.38;35.91;99941.16;4476801;26;20006;-67
2024/04/23 09:08:59;;;;;;;6.28;2.90;;;;;;;12.78;35.22;99929.78;4445731;26;20011;-70
2024/04/23 09:11:00;;;;;;;13.98;4.03;;;;;;;12.61;35.25;99944.97;4476702;26;20069;-68
2024/04/23 09:13:01;;;;;;;7.25;3.10;;;;;;;11.82;35.61;99942.28;4445497;26;20015;-69
2024/04/23 09:15:01;;;;;;;6.22;2.97;;;;;;;12.30;35.25;99940.09;4476674;26;20007;-67
2024/04/23 09:17:01;;;;;;;6.18;3.63;;;;;;;11.59;35.31;99933.03;4477002;26;19999;-68
2024/04/23 09:19:02;;;;;;;6.72;3.33;;;;;;;11.56;35.66;99936.88;4476521;26;19995;-69
2024/04/23 09:21:03;;;;;;;6.97;3.65;;;;;;;11.73;34.99;99928.97;4476791;26;20010;-68
2024/04/23 09:23:04;;;;;;;8.27;3.38;;;;;;;11.75;34.74;99929.66;4476114;26;20019;-68
2024/04/23 09:25:04;;;;;;;5.82;3.28;;;;;;;11.70;34.98;99925.63;4476749;26;20004;-68
2024/04/23 09:27:07;;;;;;;5.45;2.90;;;;;;;11.85;34.85;99930.41;4477067;26;19995;-68
2024/04/23 09:29:08;;;;;;;7.72;3.15;;;;;;;11.79;34.13;99925.69;4476874;26;20003;-67
2024/04/23 09:31:15;;;;;;;4.40;2.75;;;;;;;12.08;33.91;99929.94;4476664;26;20015;-69
2024/04/23 09:33:22;;;;;;;5.85;3.35;;;;;;;11.82;33.49;99920.00;4475395;26;20077;-69
2024/04/23 09:35:24;;;;;;;5.78;3.03;;;;;;;11.99;33.03;99924.53;4476617;26;20423;-69
2024/04/23 09:37:24;;;;;;;4.97;2.63;;;;;;;12.31;32.82;99922.19;4445563;26;20012;-68